sensor_id;sensor_type;location;lat;lon;timestamp;P1;durP1;ratioP1;P2;durP2;ratioP2
61673;SDS011;47573;43.832;5.974;2023-03-03T00:00:53;496.70;;;320.52;;
61673;SDS011;47573;43.832;5.974;2023-03-03T00:07:34;493.80;;;320.65;;
61673;SDS011;47573;43.832;5.974;2023-03-03T00:14:17;490.83;;;315.53;;
61673;SDS011;47573;43.832;5.974;2023-03-03T00:21:03;482.98;;;309.70;;
61673;SDS011;47573;43.832;5.974;2023-03-03T00:28:00;479.08;;;303.55;;
61673;SDS011;47573;43.832;5.974;2023-03-03T00:34:41;477.20;;;300.05;;
61673;SDS011;47573;43.832;5.974;2023-03-03T00:41:24;467.23;;;292.92;;
61673;SDS011;47573;43.832;5.974;2023-03-03T00:48:23;473.77;;;296.00;;
61673;SDS011;47573;43.832;5.974;2023-03-03T00:55:06;456.90;;;283.55;;
61673;SDS011;47573;43.832;5.974;2023-03-03T01:01:48;447.42;;;276.75;;
61673;SDS011;47573;43.832;5.974;2023-03-03T01:08:29;440.13;;;273.45;;
61673;SDS011;47573;43.832;5.974;2023-03-03T01:15:09;442.23;;;265.88;;
61673;SDS011;47573;43.832;5.974;2023-03-03T01:21:54;425.83;;;259.20;;
61673;SDS011;47573;43.832;5.974;2023-03-03T01:28:36;418.58;;;253.23;;
61673;SDS011;47573;43.832;5.974;2023-03-03T01:35:17;412.17;;;246.57;;
61673;SDS011;47573;43.832;5.974;2023-03-03T01:41:59;404.67;;;245.30;;
61673;SDS011;47573;43.832;5.974;2023-03-03T01:48:42;392.33;;;238.27;;
61673;SDS011;47573;43.832;5.974;2023-03-03T01:55:27;400.50;;;232.90;;
61673;SDS011;47573;43.832;5.974;2023-03-03T02:02:12;395.38;;;234.77;;
61673;SDS011;47573;43.832;5.974;2023-03-03T02:08:53;384.33;;;232.90;;
61673;SDS011;47573;43.832;5.974;2023-03-03T02:15:36;385.00;;;228.45;;
61673;SDS011;47573;43.832;5.974;2023-03-03T02:22:20;370.50;;;219.10;;
61673;SDS011;47573;43.832;5.974;2023-03-03T02:29:07;363.60;;;211.80;;
61673;SDS011;47573;43.832;5.974;2023-03-03T02:35:49;358.70;;;211.18;;
61673;SDS011;47573;43.832;5.974;2023-03-03T02:42:30;346.38;;;203.48;;
61673;SDS011;47573;43.832;5.974;2023-03-03T02:49:13;341.27;;;197.30;;
61673;SDS011;47573;43.832;5.974;2023-03-03T02:55:55;329.08;;;193.75;;
61673;SDS011;47573;43.832;5.974;2023-03-03T03:02:35;326.17;;;189.63;;
61673;SDS011;47573;43.832;5.974;2023-03-03T03:09:18;328.10;;;185.30;;
61673;SDS011;47573;43.832;5.974;2023-03-03T03:15:59;308.70;;;172.13;;
61673;SDS011;47573;43.832;5.974;2023-03-03T03:22:40;308.73;;;172.30;;
61673;SDS011;47573;43.832;5.974;2023-03-03T03:29:21;303.00;;;166.77;;
61673;SDS011;47573;43.832;5.974;2023-03-03T03:36:02;297.77;;;164.02;;
61673;SDS011;47573;43.832;5.974;2023-03-03T03:42:43;289.70;;;158.73;;
61673;SDS011;47573;43.832;5.974;2023-03-03T03:49:25;281.27;;;153.23;;
61673;SDS011;47573;43.832;5.974;2023-03-03T03:56:06;281.35;;;151.63;;
61673;SDS011;47573;43.832;5.974;2023-03-03T04:02:47;268.27;;;146.63;;
61673;SDS011;47573;43.832;5.974;2023-03-03T04:09:28;263.40;;;144.30;;
61673;SDS011;47573;43.832;5.974;2023-03-03T04:16:09;255.85;;;139.88;;
61673;SDS011;47573;43.832;5.974;2023-03-03T04:22:49;249.63;;;137.17;;
61673;SDS011;47573;43.832;5.974;2023-03-03T04:29:31;246.80;;;133.57;;
61673;SDS011;47573;43.832;5.974;2023-03-03T04:36:12;243.50;;;131.45;;
61673;SDS011;47573;43.832;5.974;2023-03-03T04:42:52;236.93;;;128.00;;
61673;SDS011;47573;43.832;5.974;2023-03-03T04:49:34;229.10;;;123.60;;
61673;SDS011;47573;43.832;5.974;2023-03-03T04:56:15;229.30;;;125.65;;
61673;SDS011;47573;43.832;5.974;2023-03-03T05:02:55;215.10;;;118.90;;
61673;SDS011;47573;43.832;5.974;2023-03-03T05:09:37;218.23;;;117.03;;
61673;SDS011;47573;43.832;5.974;2023-03-03T05:16:18;211.27;;;112.18;;
61673;SDS011;47573;43.832;5.974;2023-03-03T05:22:58;207.13;;;109.77;;
61673;SDS011;47573;43.832;5.974;2023-03-03T05:29:40;201.40;;;107.40;;
61673;SDS011;47573;43.832;5.974;2023-03-03T05:36:21;199.80;;;105.85;;
61673;SDS011;47573;43.832;5.974;2023-03-03T05:43:01;191.50;;;101.15;;
61673;SDS011;47573;43.832;5.974;2023-03-03T05:49:43;180.80;;;97.05;;
61673;SDS011;47573;43.832;5.974;2023-03-03T05:56:24;173.77;;;92.82;;
61673;SDS011;47573;43.832;5.974;2023-03-03T06:03:04;172.27;;;90.85;;
61673;SDS011;47573;43.832;5.974;2023-03-03T06:09:46;165.52;;;86.40;;
61673;SDS011;47573;43.832;5.974;2023-03-03T06:16:27;161.52;;;86.15;;
61673;SDS011;47573;43.832;5.974;2023-03-03T06:23:07;151.40;;;80.50;;
61673;SDS011;47573;43.832;5.974;2023-03-03T06:29:49;150.23;;;79.47;;
61673;SDS011;47573;43.832;5.974;2023-03-03T06:36:30;152.15;;;78.53;;
61673;SDS011;47573;43.832;5.974;2023-03-03T06:43:10;141.37;;;73.60;;
61673;SDS011;47573;43.832;5.974;2023-03-03T06:49:52;134.55;;;72.50;;
61673;SDS011;47573;43.832;5.974;2023-03-03T06:56:33;131.30;;;69.53;;
61673;SDS011;47573;43.832;5.974;2023-03-03T07:03:15;139.45;;;69.80;;
61673;SDS011;47573;43.832;5.974;2023-03-03T07:09:58;127.90;;;66.60;;
61673;SDS011;47573;43.832;5.974;2023-03-03T07:16:39;130.38;;;65.35;;
61673;SDS011;47573;43.832;5.974;2023-03-03T07:23:20;116.97;;;60.27;;
61673;SDS011;47573;43.832;5.974;2023-03-03T07:30:12;110.57;;;56.30;;
61673;SDS011;47573;43.832;5.974;2023-03-03T07:37:01;109.35;;;55.97;;
61673;SDS011;47573;43.832;5.974;2023-03-03T07:43:49;102.03;;;54.25;;
61673;SDS011;47573;43.832;5.974;2023-03-03T07:50:32;101.77;;;52.80;;
61673;SDS011;47573;43.832;5.974;2023-03-03T07:57:14;103.30;;;54.13;;
61673;SDS011;47573;43.832;5.974;2023-03-03T08:04:00;346.27;;;108.40;;
61673;SDS011;47573;43.832;5.974;2023-03-03T08:10:43;202.80;;;65.10;;
61673;SDS011;47573;43.832;5.974;2023-03-03T08:17:29;207.27;;;62.03;;
61673;SDS011;47573;43.832;5.974;2023-03-03T08:24:14;151.82;;;47.75;;
61673;SDS011;47573;43.832;5.974;2023-03-03T08:30:56;240.30;;;72.47;;
61673;SDS011;47573;43.832;5.974;2023-03-03T08:37:37;161.63;;;51.97;;
61673;SDS011;47573;43.832;5.974;2023-03-03T08:44:17;137.57;;;47.30;;
61673;SDS011;47573;43.832;5.974;2023-03-03T08:50:59;99.93;;;41.55;;
61673;SDS011;47573;43.832;5.974;2023-03-03T08:57:40;83.90;;;38.95;;
61673;SDS011;47573;43.832;5.974;2023-03-03T09:04:20;68.15;;;33.45;;
61673;SDS011;47573;43.832;5.974;2023-03-03T09:11:02;62.42;;;33.97;;
61673;SDS011;47573;43.832;5.974;2023-03-03T09:17:48;61.70;;;33.53;;
61673;SDS011;47573;43.832;5.974;2023-03-03T09:24:30;60.00;;;32.00;;
61673;SDS011;47573;43.832;5.974;2023-03-03T09:31:19;61.88;;;32.30;;
61673;SDS011;47573;43.832;5.974;2023-03-03T09:38:10;55.55;;;31.10;;
61673;SDS011;47573;43.832;5.974;2023-03-03T09:52:26;58.17;;;31.17;;
61673;SDS011;47573;43.832;5.974;2023-03-03T09:59:20;53.72;;;30.67;;
61673;SDS011;47573;43.832;5.974;2023-03-03T10:06:15;58.78;;;30.13;;
61673;SDS011;47573;43.832;5.974;2023-03-03T10:13:05;51.22;;;28.10;;
61673;SDS011;47573;43.832;5.974;2023-03-03T10:19:59;52.20;;;27.90;;
61673;SDS011;47573;43.832;5.974;2023-03-03T10:26:56;52.10;;;28.92;;
61673;SDS011;47573;43.832;5.974;2023-03-03T10:33:47;51.00;;;27.88;;
61673;SDS011;47573;43.832;5.974;2023-03-03T10:40:36;51.30;;;28.58;;
61673;SDS011;47573;43.832;5.974;2023-03-03T10:47:30;48.13;;;26.90;;
61673;SDS011;47573;43.832;5.974;2023-03-03T10:54:24;47.85;;;27.45;;
61673;SDS011;47573;43.832;5.974;2023-03-03T11:01:18;49.60;;;27.55;;
61673;SDS011;47573;43.832;5.974;2023-03-03T11:08:06;48.80;;;27.63;;
61673;SDS011;47573;43.832;5.974;2023-03-03T11:14:54;48.28;;;27.27;;
61673;SDS011;47573;43.832;5.974;2023-03-03T11:21:57;48.45;;;26.90;;
61673;SDS011;47573;43.832;5.974;2023-03-03T11:28:50;44.50;;;25.95;;
61673;SDS011;47573;43.832;5.974;2023-03-03T11:35:42;86.15;;;34.95;;
61673;SDS011;47573;43.832;5.974;2023-03-03T11:42:30;65.60;;;29.88;;
61673;SDS011;47573;43.832;5.974;2023-03-03T11:49:23;74.88;;;33.15;;
61673;SDS011;47573;43.832;5.974;2023-03-03T11:56:13;52.75;;;27.05;;
61673;SDS011;47573;43.832;5.974;2023-03-03T12:03:01;44.42;;;25.60;;
61673;SDS011;47573;43.832;5.974;2023-03-03T12:09:54;45.30;;;25.15;;
61673;SDS011;47573;43.832;5.974;2023-03-03T12:16:48;41.33;;;24.23;;
61673;SDS011;47573;43.832;5.974;2023-03-03T12:23:40;39.25;;;22.98;;
61673;SDS011;47573;43.832;5.974;2023-03-03T12:30:35;51.20;;;26.02;;
61673;SDS011;47573;43.832;5.974;2023-03-03T12:37:35;44.83;;;24.42;;
61673;SDS011;47573;43.832;5.974;2023-03-03T12:44:26;41.30;;;24.63;;
61673;SDS011;47573;43.832;5.974;2023-03-03T12:51:18;38.40;;;23.27;;
61673;SDS011;47573;43.832;5.974;2023-03-03T12:58:13;39.20;;;23.27;;
61673;SDS011;47573;43.832;5.974;2023-03-03T13:05:06;36.50;;;22.08;;
61673;SDS011;47573;43.832;5.974;2023-03-03T13:12:11;38.88;;;22.40;;
61673;SDS011;47573;43.832;5.974;2023-03-03T13:19:05;40.50;;;23.00;;
61673;SDS011;47573;43.832;5.974;2023-03-03T13:25:52;40.08;;;22.52;;
61673;SDS011;47573;43.832;5.974;2023-03-03T13:32:37;38.00;;;22.35;;
61673;SDS011;47573;43.832;5.974;2023-03-03T13:39:24;34.35;;;20.58;;
61673;SDS011;47573;43.832;5.974;2023-03-03T13:46:10;35.70;;;20.83;;
61673;SDS011;47573;43.832;5.974;2023-03-03T13:53:00;33.40;;;20.05;;
61673;SDS011;47573;43.832;5.974;2023-03-03T13:59:56;34.28;;;20.33;;
61673;SDS011;47573;43.832;5.974;2023-03-03T14:06:46;32.47;;;19.80;;
61673;SDS011;47573;43.832;5.974;2023-03-03T14:13:36;32.72;;;20.23;;
61673;SDS011;47573;43.832;5.974;2023-03-03T14:20:26;31.52;;;19.65;;
61673;SDS011;47573;43.832;5.974;2023-03-03T14:27:13;30.52;;;18.73;;
61673;SDS011;47573;43.832;5.974;2023-03-03T14:34:13;30.13;;;18.98;;
61673;SDS011;47573;43.832;5.974;2023-03-03T14:41:10;30.13;;;18.47;;
61673;SDS011;47573;43.832;5.974;2023-03-03T14:47:53;30.20;;;18.00;;
61673;SDS011;47573;43.832;5.974;2023-03-03T14:54:36;29.55;;;18.10;;
61673;SDS011;47573;43.832;5.974;2023-03-03T15:01:28;27.65;;;17.35;;
61673;SDS011;47573;43.832;5.974;2023-03-03T15:08:12;30.17;;;18.27;;
61673;SDS011;47573;43.832;5.974;2023-03-03T15:15:01;28.90;;;17.77;;
61673;SDS011;47573;43.832;5.974;2023-03-03T15:21:54;29.05;;;17.63;;
61673;SDS011;47573;43.832;5.974;2023-03-03T15:49:38;242.57;;;96.68;;
61673;SDS011;47573;43.832;5.974;2023-03-03T15:56:39;154.20;;;65.47;;
61673;SDS011;47573;43.832;5.974;2023-03-03T16:03:25;90.85;;;54.63;;
61673;SDS011;47573;43.832;5.974;2023-03-03T16:10:17;113.63;;;65.15;;
61673;SDS011;47573;43.832;5.974;2023-03-03T16:17:03;124.78;;;73.75;;
61673;SDS011;47573;43.832;5.974;2023-03-03T16:23:54;127.30;;;77.07;;
61673;SDS011;47573;43.832;5.974;2023-03-03T16:30:38;119.55;;;74.68;;
61673;SDS011;47573;43.832;5.974;2023-03-03T16:37:27;124.22;;;76.63;;
61673;SDS011;47573;43.832;5.974;2023-03-03T16:44:14;120.35;;;75.43;;
61673;SDS011;47573;43.832;5.974;2023-03-03T16:51:22;115.55;;;72.90;;
61673;SDS011;47573;43.832;5.974;2023-03-03T16:58:14;138.80;;;80.28;;
61673;SDS011;47573;43.832;5.974;2023-03-03T17:05:10;156.50;;;95.38;;
61673;SDS011;47573;43.832;5.974;2023-03-03T17:12:01;186.27;;;113.80;;
61673;SDS011;47573;43.832;5.974;2023-03-03T17:19:00;214.23;;;132.13;;
61673;SDS011;47573;43.832;5.974;2023-03-03T17:25:52;250.35;;;153.23;;
61673;SDS011;47573;43.832;5.974;2023-03-03T17:32:53;263.42;;;160.88;;
61673;SDS011;47573;43.832;5.974;2023-03-03T17:39:49;308.42;;;195.65;;
61673;SDS011;47573;43.832;5.974;2023-03-03T17:46:43;318.75;;;203.35;;
61673;SDS011;47573;43.832;5.974;2023-03-03T18:00:49;368.30;;;247.60;;
61673;SDS011;47573;43.832;5.974;2023-03-03T18:07:41;406.75;;;273.38;;
61673;SDS011;47573;43.832;5.974;2023-03-03T18:14:35;425.60;;;289.23;;
61673;SDS011;47573;43.832;5.974;2023-03-03T18:21:26;455.73;;;306.10;;
61673;SDS011;47573;43.832;5.974;2023-03-03T18:28:14;478.83;;;328.15;;
61673;SDS011;47573;43.832;5.974;2023-03-03T18:42:10;514.00;;;358.00;;
61673;SDS011;47573;43.832;5.974;2023-03-03T18:49:06;529.35;;;374.30;;
61673;SDS011;47573;43.832;5.974;2023-03-03T18:55:47;533.03;;;375.20;;
61673;SDS011;47573;43.832;5.974;2023-03-03T19:02:34;540.25;;;386.92;;
61673;SDS011;47573;43.832;5.974;2023-03-03T19:09:16;540.72;;;384.05;;
61673;SDS011;47573;43.832;5.974;2023-03-03T19:22:44;569.42;;;422.25;;
61673;SDS011;47573;43.832;5.974;2023-03-03T19:29:41;594.60;;;449.67;;
61673;SDS011;47573;43.832;5.974;2023-03-03T19:36:46;594.22;;;454.83;;
61673;SDS011;47573;43.832;5.974;2023-03-03T19:43:41;596.00;;;451.27;;
61673;SDS011;47573;43.832;5.974;2023-03-03T19:50:37;608.33;;;472.27;;
61673;SDS011;47573;43.832;5.974;2023-03-03T19:57:29;605.80;;;466.27;;
61673;SDS011;47573;43.832;5.974;2023-03-03T20:11:39;595.05;;;447.13;;
61673;SDS011;47573;43.832;5.974;2023-03-03T20:18:37;587.53;;;442.33;;
61673;SDS011;47573;43.832;5.974;2023-03-03T20:25:35;577.73;;;429.87;;
61673;SDS011;47573;43.832;5.974;2023-03-03T20:32:23;607.30;;;463.98;;
61673;SDS011;47573;43.832;5.974;2023-03-03T20:39:14;613.00;;;469.42;;
61673;SDS011;47573;43.832;5.974;2023-03-03T20:46:08;639.28;;;497.63;;
61673;SDS011;47573;43.832;5.974;2023-03-03T20:52:58;632.35;;;486.33;;
61673;SDS011;47573;43.832;5.974;2023-03-03T20:59:58;628.10;;;485.58;;
61673;SDS011;47573;43.832;5.974;2023-03-03T21:06:43;615.42;;;467.60;;
61673;SDS011;47573;43.832;5.974;2023-03-03T21:13:27;609.03;;;458.60;;
61673;SDS011;47573;43.832;5.974;2023-03-03T21:20:18;607.78;;;460.23;;
61673;SDS011;47573;43.832;5.974;2023-03-03T21:27:12;614.78;;;467.83;;
61673;SDS011;47573;43.832;5.974;2023-03-03T21:34:03;1022.05;;;623.30;;
61673;SDS011;47573;43.832;5.974;2023-03-03T21:40:58;637.78;;;491.98;;
61673;SDS011;47573;43.832;5.974;2023-03-03T21:47:41;689.35;;;522.30;;
61673;SDS011;47573;43.832;5.974;2023-03-03T21:54:21;666.83;;;505.90;;
61673;SDS011;47573;43.832;5.974;2023-03-03T22:01:03;979.60;;;621.03;;
61673;SDS011;47573;43.832;5.974;2023-03-03T22:07:45;735.10;;;535.08;;
61673;SDS011;47573;43.832;5.974;2023-03-03T22:14:26;707.70;;;526.80;;
61673;SDS011;47573;43.832;5.974;2023-03-03T22:21:06;647.37;;;492.57;;
61673;SDS011;47573;43.832;5.974;2023-03-03T22:27:48;668.08;;;508.80;;
61673;SDS011;47573;43.832;5.974;2023-03-03T22:34:28;691.25;;;519.83;;
61673;SDS011;47573;43.832;5.974;2023-03-03T22:41:09;663.63;;;504.43;;
61673;SDS011;47573;43.832;5.974;2023-03-03T22:47:51;662.07;;;510.17;;
61673;SDS011;47573;43.832;5.974;2023-03-03T22:54:31;669.53;;;514.80;;
61673;SDS011;47573;43.832;5.974;2023-03-03T23:01:12;659.05;;;501.70;;
61673;SDS011;47573;43.832;5.974;2023-03-03T23:07:54;647.53;;;496.45;;
61673;SDS011;47573;43.832;5.974;2023-03-03T23:14:34;638.92;;;484.42;;
61673;SDS011;47573;43.832;5.974;2023-03-03T23:21:15;630.17;;;473.00;;
61673;SDS011;47573;43.832;5.974;2023-03-03T23:27:57;658.05;;;499.38;;
61673;SDS011;47573;43.832;5.974;2023-03-03T23:34:37;659.35;;;496.52;;
61673;SDS011;47573;43.832;5.974;2023-03-03T23:41:18;642.20;;;488.63;;
61673;SDS011;47573;43.832;5.974;2023-03-03T23:48:00;650.25;;;489.83;;
61673;SDS011;47573;43.832;5.974;2023-03-03T23:54:41;658.85;;;496.00;;
